sensor_id;sensor_type;location;lat;lon;timestamp;P1;durP1;ratioP1;P2;durP2;ratioP2
59169;SDS011;52474;52.236;5.114;2023-09-19T00:01:08;6.38;;;2.00;;
59169;SDS011;52474;52.236;5.114;2023-09-19T00:03:34;7.63;;;1.90;;
59169;SDS011;52474;52.236;5.114;2023-09-19T00:06:03;7.95;;;1.77;;
59169;SDS011;52474;52.236;5.114;2023-09-19T00:08:35;6.78;;;2.00;;
59169;SDS011;52474;52.236;5.114;2023-09-19T00:11:01;6.18;;;1.85;;
59169;SDS011;52474;52.236;5.114;2023-09-19T00:13:29;11.57;;;2.47;;
59169;SDS011;52474;52.236;5.114;2023-09-19T00:15:56;9.13;;;1.95;;
59169;SDS011;52474;52.236;5.114;2023-09-19T00:18:24;6.50;;;2.00;;
59169;SDS011;52474;52.236;5.114;2023-09-19T00:20:58;7.35;;;2.00;;
59169;SDS011;52474;52.236;5.114;2023-09-19T00:23:24;9.48;;;2.00;;
59169;SDS011;52474;52.236;5.114;2023-09-19T00:25:50;6.82;;;2.10;;
59169;SDS011;52474;52.236;5.114;2023-09-19T00:28:16;7.38;;;1.73;;
59169;SDS011;52474;52.236;5.114;2023-09-19T00:30:44;7.22;;;1.98;;
59169;SDS011;52474;52.236;5.114;2023-09-19T00:33:10;7.47;;;1.77;;
59169;SDS011;52474;52.236;5.114;2023-09-19T00:35:53;8.30;;;1.75;;
59169;SDS011;52474;52.236;5.114;2023-09-19T00:38:20;7.40;;;1.70;;
59169;SDS011;52474;52.236;5.114;2023-09-19T00:40:48;8.50;;;2.10;;
59169;SDS011;52474;52.236;5.114;2023-09-19T00:43:15;7.40;;;1.98;;
59169;SDS011;52474;52.236;5.114;2023-09-19T00:45:43;11.30;;;2.05;;
59169;SDS011;52474;52.236;5.114;2023-09-19T00:48:11;11.90;;;2.05;;
59169;SDS011;52474;52.236;5.114;2023-09-19T00:50:37;9.23;;;1.88;;
59169;SDS011;52474;52.236;5.114;2023-09-19T00:53:07;10.30;;;1.70;;
59169;SDS011;52474;52.236;5.114;2023-09-19T00:55:38;6.63;;;2.15;;
59169;SDS011;52474;52.236;5.114;2023-09-19T00:58:07;9.23;;;1.98;;
59169;SDS011;52474;52.236;5.114;2023-09-19T01:00:35;10.32;;;2.00;;
59169;SDS011;52474;52.236;5.114;2023-09-19T01:03:01;8.15;;;1.85;;
59169;SDS011;52474;52.236;5.114;2023-09-19T01:05:28;7.28;;;1.63;;
59169;SDS011;52474;52.236;5.114;2023-09-19T01:07:55;7.60;;;2.10;;
59169;SDS011;52474;52.236;5.114;2023-09-19T01:10:21;6.70;;;1.90;;
59169;SDS011;52474;52.236;5.114;2023-09-19T01:15:47;9.27;;;2.00;;
59169;SDS011;52474;52.236;5.114;2023-09-19T01:29:41;8.13;;;1.88;;
59169;SDS011;52474;52.236;5.114;2023-09-19T01:32:10;6.82;;;2.38;;
59169;SDS011;52474;52.236;5.114;2023-09-19T01:34:43;12.52;;;2.17;;
59169;SDS011;52474;52.236;5.114;2023-09-19T01:37:23;7.63;;;1.70;;
59169;SDS011;52474;52.236;5.114;2023-09-19T01:39:56;8.73;;;2.00;;
59169;SDS011;52474;52.236;5.114;2023-09-19T01:42:42;9.70;;;1.90;;
59169;SDS011;52474;52.236;5.114;2023-09-19T01:51:18;13.27;;;2.20;;
59169;SDS011;52474;52.236;5.114;2023-09-19T01:53:53;8.48;;;2.13;;
59169;SDS011;52474;52.236;5.114;2023-09-19T01:56:25;8.60;;;1.80;;
59169;SDS011;52474;52.236;5.114;2023-09-19T01:59:10;7.28;;;1.90;;
59169;SDS011;52474;52.236;5.114;2023-09-19T02:01:39;6.65;;;1.60;;
59169;SDS011;52474;52.236;5.114;2023-09-19T02:04:09;6.70;;;2.00;;
59169;SDS011;52474;52.236;5.114;2023-09-19T02:06:39;6.95;;;2.00;;
59169;SDS011;52474;52.236;5.114;2023-09-19T02:09:06;5.78;;;1.75;;
59169;SDS011;52474;52.236;5.114;2023-09-19T02:11:32;10.52;;;2.05;;
59169;SDS011;52474;52.236;5.114;2023-09-19T02:13:58;7.95;;;2.25;;
59169;SDS011;52474;52.236;5.114;2023-09-19T02:16:24;8.38;;;2.50;;
59169;SDS011;52474;52.236;5.114;2023-09-19T02:18:50;11.10;;;2.50;;
59169;SDS011;52474;52.236;5.114;2023-09-19T02:21:16;10.63;;;2.33;;
59169;SDS011;52474;52.236;5.114;2023-09-19T02:23:46;10.55;;;2.30;;
59169;SDS011;52474;52.236;5.114;2023-09-19T02:26:12;11.18;;;2.78;;
59169;SDS011;52474;52.236;5.114;2023-09-19T02:28:40;10.65;;;2.05;;
59169;SDS011;52474;52.236;5.114;2023-09-19T02:31:08;9.30;;;2.30;;
59169;SDS011;52474;52.236;5.114;2023-09-19T02:33:33;10.25;;;2.08;;
59169;SDS011;52474;52.236;5.114;2023-09-19T02:36:00;7.80;;;2.72;;
59169;SDS011;52474;52.236;5.114;2023-09-19T02:38:26;14.15;;;2.42;;
59169;SDS011;52474;52.236;5.114;2023-09-19T02:40:52;9.75;;;1.98;;
59169;SDS011;52474;52.236;5.114;2023-09-19T02:43:20;8.63;;;2.13;;
59169;SDS011;52474;52.236;5.114;2023-09-19T02:45:47;11.25;;;2.15;;
59169;SDS011;52474;52.236;5.114;2023-09-19T02:48:15;15.95;;;2.97;;
59169;SDS011;52474;52.236;5.114;2023-09-19T02:50:42;7.90;;;2.40;;
59169;SDS011;52474;52.236;5.114;2023-09-19T02:53:09;11.68;;;2.55;;
59169;SDS011;52474;52.236;5.114;2023-09-19T02:55:38;12.35;;;2.33;;
59169;SDS011;52474;52.236;5.114;2023-09-19T02:58:06;14.60;;;2.70;;
59169;SDS011;52474;52.236;5.114;2023-09-19T03:00:39;12.93;;;2.55;;
59169;SDS011;52474;52.236;5.114;2023-09-19T03:03:08;16.00;;;3.08;;
59169;SDS011;52474;52.236;5.114;2023-09-19T03:05:34;10.63;;;2.10;;
59169;SDS011;52474;52.236;5.114;2023-09-19T03:08:00;12.60;;;2.63;;
59169;SDS011;52474;52.236;5.114;2023-09-19T03:10:26;11.05;;;2.60;;
59169;SDS011;52474;52.236;5.114;2023-09-19T03:12:53;11.25;;;2.40;;
59169;SDS011;52474;52.236;5.114;2023-09-19T03:15:20;14.05;;;2.55;;
59169;SDS011;52474;52.236;5.114;2023-09-19T03:17:48;8.13;;;2.00;;
59169;SDS011;52474;52.236;5.114;2023-09-19T03:20:18;9.00;;;1.90;;
59169;SDS011;52474;52.236;5.114;2023-09-19T03:22:47;12.82;;;2.30;;
59169;SDS011;52474;52.236;5.114;2023-09-19T03:25:14;9.90;;;2.20;;
59169;SDS011;52474;52.236;5.114;2023-09-19T03:27:43;8.43;;;1.95;;
59169;SDS011;52474;52.236;5.114;2023-09-19T03:30:09;19.00;;;2.60;;
59169;SDS011;52474;52.236;5.114;2023-09-19T03:32:45;10.40;;;2.33;;
59169;SDS011;52474;52.236;5.114;2023-09-19T03:35:12;13.57;;;2.75;;
59169;SDS011;52474;52.236;5.114;2023-09-19T03:37:40;10.35;;;2.13;;
59169;SDS011;52474;52.236;5.114;2023-09-19T03:40:08;11.50;;;2.45;;
59169;SDS011;52474;52.236;5.114;2023-09-19T03:45:09;8.93;;;2.17;;
59169;SDS011;52474;52.236;5.114;2023-09-19T03:47:40;12.70;;;2.55;;
59169;SDS011;52474;52.236;5.114;2023-09-19T03:50:07;9.93;;;3.22;;
59169;SDS011;52474;52.236;5.114;2023-09-19T03:52:36;13.23;;;2.35;;
59169;SDS011;52474;52.236;5.114;2023-09-19T03:55:02;13.10;;;2.58;;
59169;SDS011;52474;52.236;5.114;2023-09-19T03:57:31;11.93;;;2.65;;
59169;SDS011;52474;52.236;5.114;2023-09-19T03:59:56;10.73;;;2.42;;
59169;SDS011;52474;52.236;5.114;2023-09-19T04:02:22;12.05;;;2.40;;
59169;SDS011;52474;52.236;5.114;2023-09-19T04:04:50;14.68;;;2.38;;
59169;SDS011;52474;52.236;5.114;2023-09-19T04:07:17;12.55;;;2.72;;
59169;SDS011;52474;52.236;5.114;2023-09-19T04:09:45;15.85;;;2.92;;
59169;SDS011;52474;52.236;5.114;2023-09-19T04:12:11;14.00;;;2.22;;
59169;SDS011;52474;52.236;5.114;2023-09-19T04:14:37;12.02;;;2.40;;
59169;SDS011;52474;52.236;5.114;2023-09-19T04:17:04;11.98;;;2.40;;
59169;SDS011;52474;52.236;5.114;2023-09-19T04:19:31;12.38;;;2.40;;
59169;SDS011;52474;52.236;5.114;2023-09-19T04:21:56;9.57;;;1.88;;
59169;SDS011;52474;52.236;5.114;2023-09-19T04:24:22;13.23;;;2.58;;
59169;SDS011;52474;52.236;5.114;2023-09-19T04:26:48;12.73;;;2.10;;
59169;SDS011;52474;52.236;5.114;2023-09-19T04:29:13;12.45;;;2.70;;
59169;SDS011;52474;52.236;5.114;2023-09-19T04:31:39;13.18;;;2.58;;
59169;SDS011;52474;52.236;5.114;2023-09-19T04:34:06;10.50;;;2.22;;
59169;SDS011;52474;52.236;5.114;2023-09-19T04:36:33;11.98;;;2.20;;
59169;SDS011;52474;52.236;5.114;2023-09-19T04:38:58;13.70;;;3.17;;
59169;SDS011;52474;52.236;5.114;2023-09-19T04:41:24;14.32;;;2.90;;
59169;SDS011;52474;52.236;5.114;2023-09-19T04:43:50;13.98;;;2.65;;
59169;SDS011;52474;52.236;5.114;2023-09-19T04:46:16;15.10;;;2.90;;
59169;SDS011;52474;52.236;5.114;2023-09-19T04:48:43;11.50;;;2.70;;
59169;SDS011;52474;52.236;5.114;2023-09-19T04:51:08;16.10;;;2.47;;
59169;SDS011;52474;52.236;5.114;2023-09-19T04:53:35;13.95;;;2.60;;
59169;SDS011;52474;52.236;5.114;2023-09-19T04:56:01;16.00;;;2.92;;
59169;SDS011;52474;52.236;5.114;2023-09-19T04:58:29;11.00;;;2.28;;
59169;SDS011;52474;52.236;5.114;2023-09-19T05:00:55;13.27;;;2.05;;
59169;SDS011;52474;52.236;5.114;2023-09-19T05:03:21;12.75;;;3.00;;
59169;SDS011;52474;52.236;5.114;2023-09-19T05:05:47;9.45;;;2.45;;
59169;SDS011;52474;52.236;5.114;2023-09-19T05:08:14;10.45;;;2.33;;
59169;SDS011;52474;52.236;5.114;2023-09-19T05:10:40;14.77;;;2.85;;
59169;SDS011;52474;52.236;5.114;2023-09-19T05:13:06;8.65;;;2.40;;
59169;SDS011;52474;52.236;5.114;2023-09-19T05:15:35;10.57;;;2.63;;
59169;SDS011;52474;52.236;5.114;2023-09-19T05:18:02;8.73;;;2.40;;
59169;SDS011;52474;52.236;5.114;2023-09-19T05:20:28;11.18;;;3.22;;
59169;SDS011;52474;52.236;5.114;2023-09-19T05:22:58;10.45;;;3.75;;
59169;SDS011;52474;52.236;5.114;2023-09-19T05:25:31;13.98;;;2.83;;
59169;SDS011;52474;52.236;5.114;2023-09-19T05:30:29;16.02;;;2.90;;
59169;SDS011;52474;52.236;5.114;2023-09-19T05:32:54;11.45;;;2.90;;
59169;SDS011;52474;52.236;5.114;2023-09-19T05:35:21;10.27;;;2.28;;
59169;SDS011;52474;52.236;5.114;2023-09-19T05:37:48;16.63;;;2.38;;
59169;SDS011;52474;52.236;5.114;2023-09-19T05:40:19;13.75;;;2.85;;
59169;SDS011;52474;52.236;5.114;2023-09-19T05:42:45;12.10;;;2.40;;
59169;SDS011;52474;52.236;5.114;2023-09-19T05:45:11;12.80;;;2.20;;
59169;SDS011;52474;52.236;5.114;2023-09-19T05:47:41;8.30;;;2.28;;
59169;SDS011;52474;52.236;5.114;2023-09-19T05:50:09;10.60;;;2.92;;
59169;SDS011;52474;52.236;5.114;2023-09-19T05:52:36;9.85;;;2.28;;
59169;SDS011;52474;52.236;5.114;2023-09-19T05:55:05;11.88;;;2.50;;
59169;SDS011;52474;52.236;5.114;2023-09-19T05:57:33;8.43;;;1.90;;
59169;SDS011;52474;52.236;5.114;2023-09-19T05:59:59;8.77;;;2.45;;
59169;SDS011;52474;52.236;5.114;2023-09-19T06:02:24;9.55;;;2.42;;
59169;SDS011;52474;52.236;5.114;2023-09-19T06:04:55;14.50;;;2.53;;
59169;SDS011;52474;52.236;5.114;2023-09-19T06:07:22;10.43;;;2.28;;
59169;SDS011;52474;52.236;5.114;2023-09-19T06:09:51;14.70;;;2.17;;
59169;SDS011;52474;52.236;5.114;2023-09-19T06:12:19;9.40;;;2.50;;
59169;SDS011;52474;52.236;5.114;2023-09-19T06:14:45;7.28;;;1.95;;
59169;SDS011;52474;52.236;5.114;2023-09-19T06:17:10;11.50;;;2.67;;
59169;SDS011;52474;52.236;5.114;2023-09-19T06:19:36;9.60;;;2.70;;
59169;SDS011;52474;52.236;5.114;2023-09-19T06:22:01;11.18;;;2.75;;
59169;SDS011;52474;52.236;5.114;2023-09-19T06:24:27;12.18;;;2.58;;
59169;SDS011;52474;52.236;5.114;2023-09-19T06:26:53;10.48;;;2.58;;
59169;SDS011;52474;52.236;5.114;2023-09-19T06:29:20;11.70;;;2.72;;
59169;SDS011;52474;52.236;5.114;2023-09-19T06:31:48;13.23;;;2.90;;
59169;SDS011;52474;52.236;5.114;2023-09-19T06:34:13;9.63;;;2.60;;
59169;SDS011;52474;52.236;5.114;2023-09-19T06:36:40;12.48;;;2.65;;
59169;SDS011;52474;52.236;5.114;2023-09-19T06:39:07;13.95;;;2.95;;
59169;SDS011;52474;52.236;5.114;2023-09-19T06:41:36;14.60;;;3.20;;
59169;SDS011;52474;52.236;5.114;2023-09-19T06:44:09;15.15;;;3.20;;
59169;SDS011;52474;52.236;5.114;2023-09-19T06:46:35;14.65;;;3.28;;
59169;SDS011;52474;52.236;5.114;2023-09-19T06:49:04;18.67;;;3.43;;
59169;SDS011;52474;52.236;5.114;2023-09-19T06:51:32;14.55;;;3.45;;
59169;SDS011;52474;52.236;5.114;2023-09-19T06:54:00;12.82;;;2.40;;
59169;SDS011;52474;52.236;5.114;2023-09-19T06:56:27;18.08;;;3.25;;
59169;SDS011;52474;52.236;5.114;2023-09-19T06:58:52;17.13;;;3.00;;
59169;SDS011;52474;52.236;5.114;2023-09-19T07:01:18;12.77;;;2.80;;
59169;SDS011;52474;52.236;5.114;2023-09-19T07:03:44;14.27;;;3.00;;
59169;SDS011;52474;52.236;5.114;2023-09-19T07:06:11;11.35;;;2.90;;
59169;SDS011;52474;52.236;5.114;2023-09-19T07:08:37;12.20;;;3.15;;
59169;SDS011;52474;52.236;5.114;2023-09-19T07:11:03;16.30;;;2.85;;
59169;SDS011;52474;52.236;5.114;2023-09-19T07:13:31;19.50;;;3.60;;
59169;SDS011;52474;52.236;5.114;2023-09-19T07:16:00;15.18;;;3.13;;
59169;SDS011;52474;52.236;5.114;2023-09-19T07:18:26;12.05;;;2.88;;
59169;SDS011;52474;52.236;5.114;2023-09-19T07:20:56;13.73;;;2.70;;
59169;SDS011;52474;52.236;5.114;2023-09-19T07:23:26;16.23;;;2.72;;
59169;SDS011;52474;52.236;5.114;2023-09-19T07:25:52;15.57;;;2.88;;
59169;SDS011;52474;52.236;5.114;2023-09-19T07:30:48;10.40;;;2.80;;
59169;SDS011;52474;52.236;5.114;2023-09-19T07:33:13;16.38;;;3.28;;
59169;SDS011;52474;52.236;5.114;2023-09-19T07:35:40;14.10;;;2.72;;
59169;SDS011;52474;52.236;5.114;2023-09-19T07:38:05;12.65;;;3.08;;
59169;SDS011;52474;52.236;5.114;2023-09-19T07:40:31;16.25;;;3.08;;
59169;SDS011;52474;52.236;5.114;2023-09-19T07:42:57;17.88;;;3.08;;
59169;SDS011;52474;52.236;5.114;2023-09-19T07:45:30;16.65;;;3.30;;
59169;SDS011;52474;52.236;5.114;2023-09-19T07:47:56;13.00;;;3.28;;
59169;SDS011;52474;52.236;5.114;2023-09-19T07:50:22;14.98;;;2.85;;
59169;SDS011;52474;52.236;5.114;2023-09-19T07:52:51;12.25;;;2.95;;
59169;SDS011;52474;52.236;5.114;2023-09-19T07:55:18;19.10;;;3.92;;
59169;SDS011;52474;52.236;5.114;2023-09-19T07:57:45;15.50;;;3.00;;
59169;SDS011;52474;52.236;5.114;2023-09-19T08:00:12;21.00;;;4.10;;
59169;SDS011;52474;52.236;5.114;2023-09-19T08:02:42;17.35;;;3.20;;
59169;SDS011;52474;52.236;5.114;2023-09-19T08:07:41;14.85;;;3.03;;
59169;SDS011;52474;52.236;5.114;2023-09-19T08:10:09;16.05;;;3.50;;
59169;SDS011;52474;52.236;5.114;2023-09-19T08:15:12;8.95;;;2.75;;
59169;SDS011;52474;52.236;5.114;2023-09-19T08:17:49;12.25;;;3.30;;
59169;SDS011;52474;52.236;5.114;2023-09-19T08:20:15;21.77;;;4.07;;
59169;SDS011;52474;52.236;5.114;2023-09-19T08:22:43;8.85;;;2.67;;
59169;SDS011;52474;52.236;5.114;2023-09-19T08:25:13;15.95;;;3.78;;
59169;SDS011;52474;52.236;5.114;2023-09-19T08:30:14;12.65;;;3.35;;
59169;SDS011;52474;52.236;5.114;2023-09-19T08:32:41;16.10;;;3.20;;
59169;SDS011;52474;52.236;5.114;2023-09-19T08:35:08;18.52;;;3.63;;
59169;SDS011;52474;52.236;5.114;2023-09-19T08:37:35;14.98;;;3.40;;
59169;SDS011;52474;52.236;5.114;2023-09-19T08:40:00;16.98;;;3.53;;
59169;SDS011;52474;52.236;5.114;2023-09-19T08:42:26;14.93;;;3.33;;
59169;SDS011;52474;52.236;5.114;2023-09-19T08:44:55;17.63;;;4.13;;
59169;SDS011;52474;52.236;5.114;2023-09-19T08:47:25;14.73;;;3.47;;
59169;SDS011;52474;52.236;5.114;2023-09-19T08:50:11;13.43;;;3.63;;
59169;SDS011;52474;52.236;5.114;2023-09-19T08:52:47;14.98;;;4.10;;
59169;SDS011;52474;52.236;5.114;2023-09-19T08:55:19;14.32;;;3.45;;
59169;SDS011;52474;52.236;5.114;2023-09-19T08:57:52;15.63;;;4.10;;
59169;SDS011;52474;52.236;5.114;2023-09-19T09:00:26;14.95;;;3.92;;
59169;SDS011;52474;52.236;5.114;2023-09-19T09:02:54;16.20;;;3.15;;
59169;SDS011;52474;52.236;5.114;2023-09-19T09:05:20;16.77;;;3.60;;
59169;SDS011;52474;52.236;5.114;2023-09-19T09:07:49;16.98;;;3.55;;
59169;SDS011;52474;52.236;5.114;2023-09-19T09:10:20;12.00;;;3.10;;
59169;SDS011;52474;52.236;5.114;2023-09-19T09:12:52;13.97;;;3.20;;
59169;SDS011;52474;52.236;5.114;2023-09-19T09:15:23;15.70;;;3.40;;
59169;SDS011;52474;52.236;5.114;2023-09-19T09:17:51;15.05;;;3.47;;
59169;SDS011;52474;52.236;5.114;2023-09-19T09:20:21;10.80;;;2.90;;
59169;SDS011;52474;52.236;5.114;2023-09-19T09:22:50;15.02;;;3.70;;
59169;SDS011;52474;52.236;5.114;2023-09-19T09:25:20;13.55;;;3.25;;
59169;SDS011;52474;52.236;5.114;2023-09-19T09:28:01;14.07;;;3.13;;
59169;SDS011;52474;52.236;5.114;2023-09-19T09:30:34;12.75;;;3.08;;
59169;SDS011;52474;52.236;5.114;2023-09-19T09:33:08;15.90;;;3.65;;
59169;SDS011;52474;52.236;5.114;2023-09-19T09:35:49;15.60;;;3.00;;
59169;SDS011;52474;52.236;5.114;2023-09-19T09:38:27;10.27;;;2.90;;
59169;SDS011;52474;52.236;5.114;2023-09-19T09:41:00;13.02;;;3.22;;
59169;SDS011;52474;52.236;5.114;2023-09-19T09:43:27;14.70;;;3.45;;
59169;SDS011;52474;52.236;5.114;2023-09-19T09:46:08;14.27;;;2.90;;
59169;SDS011;52474;52.236;5.114;2023-09-19T09:51:51;10.75;;;2.55;;
59169;SDS011;52474;52.236;5.114;2023-09-19T09:54:28;11.00;;;3.58;;
59169;SDS011;52474;52.236;5.114;2023-09-19T09:57:05;17.10;;;3.10;;
59169;SDS011;52474;52.236;5.114;2023-09-19T09:59:49;14.80;;;3.40;;
59169;SDS011;52474;52.236;5.114;2023-09-19T10:05:35;12.82;;;2.72;;
59169;SDS011;52474;52.236;5.114;2023-09-19T10:07:57;17.02;;;2.90;;
59169;SDS011;52474;52.236;5.114;2023-09-19T10:10:38;13.25;;;2.80;;
59169;SDS011;52474;52.236;5.114;2023-09-19T10:13:11;15.82;;;3.33;;
59169;SDS011;52474;52.236;5.114;2023-09-19T10:15:39;15.85;;;2.83;;
59169;SDS011;52474;52.236;5.114;2023-09-19T10:18:20;12.02;;;2.70;;
59169;SDS011;52474;52.236;5.114;2023-09-19T10:20:47;10.10;;;2.50;;
59169;SDS011;52474;52.236;5.114;2023-09-19T10:25:47;11.68;;;3.13;;
59169;SDS011;52474;52.236;5.114;2023-09-19T10:28:15;10.43;;;2.60;;
59169;SDS011;52474;52.236;5.114;2023-09-19T10:30:50;8.02;;;3.08;;
59169;SDS011;52474;52.236;5.114;2023-09-19T10:33:17;16.95;;;4.00;;
59169;SDS011;52474;52.236;5.114;2023-09-19T10:35:48;10.57;;;3.60;;
59169;SDS011;52474;52.236;5.114;2023-09-19T10:38:25;7.28;;;2.42;;
59169;SDS011;52474;52.236;5.114;2023-09-19T10:40:54;11.82;;;2.60;;
59169;SDS011;52474;52.236;5.114;2023-09-19T10:43:29;11.00;;;3.00;;
59169;SDS011;52474;52.236;5.114;2023-09-19T10:46:01;15.85;;;3.25;;
59169;SDS011;52474;52.236;5.114;2023-09-19T10:48:31;8.32;;;2.25;;
59169;SDS011;52474;52.236;5.114;2023-09-19T10:53:26;11.20;;;3.00;;
59169;SDS011;52474;52.236;5.114;2023-09-19T10:55:59;8.93;;;2.30;;
59169;SDS011;52474;52.236;5.114;2023-09-19T10:58:29;8.15;;;2.38;;
59169;SDS011;52474;52.236;5.114;2023-09-19T11:01:00;13.80;;;2.05;;
59169;SDS011;52474;52.236;5.114;2023-09-19T11:03:38;10.48;;;2.95;;
59169;SDS011;52474;52.236;5.114;2023-09-19T11:06:15;12.25;;;2.58;;
59169;SDS011;52474;52.236;5.114;2023-09-19T11:08:52;7.15;;;2.03;;
59169;SDS011;52474;52.236;5.114;2023-09-19T11:30:48;8.38;;;1.85;;
59169;SDS011;52474;52.236;5.114;2023-09-19T11:33:15;8.10;;;2.05;;
59169;SDS011;52474;52.236;5.114;2023-09-19T11:43:47;10.95;;;2.00;;
59169;SDS011;52474;52.236;5.114;2023-09-19T11:46:17;8.68;;;2.00;;
59169;SDS011;52474;52.236;5.114;2023-09-19T11:48:48;5.53;;;1.95;;
59169;SDS011;52474;52.236;5.114;2023-09-19T12:16:17;7.40;;;1.88;;
59169;SDS011;52474;52.236;5.114;2023-09-19T12:18:49;8.35;;;1.92;;
59169;SDS011;52474;52.236;5.114;2023-09-19T12:24:13;7.07;;;1.83;;
59169;SDS011;52474;52.236;5.114;2023-09-19T12:26:43;6.85;;;1.98;;
59169;SDS011;52474;52.236;5.114;2023-09-19T12:29:14;6.68;;;1.60;;
59169;SDS011;52474;52.236;5.114;2023-09-19T12:31:55;8.02;;;2.45;;
59169;SDS011;52474;52.236;5.114;2023-09-19T12:34:24;8.48;;;1.80;;
59169;SDS011;52474;52.236;5.114;2023-09-19T12:37:11;8.80;;;1.92;;
59169;SDS011;52474;52.236;5.114;2023-09-19T12:39:41;5.88;;;1.60;;
59169;SDS011;52474;52.236;5.114;2023-09-19T12:42:10;5.82;;;1.88;;
59169;SDS011;52474;52.236;5.114;2023-09-19T12:44:42;6.00;;;1.60;;
59169;SDS011;52474;52.236;5.114;2023-09-19T12:47:16;9.63;;;1.63;;
59169;SDS011;52474;52.236;5.114;2023-09-19T12:52:46;6.10;;;1.63;;
59169;SDS011;52474;52.236;5.114;2023-09-19T12:55:20;5.50;;;1.50;;
59169;SDS011;52474;52.236;5.114;2023-09-19T13:00:35;7.15;;;1.70;;
59169;SDS011;52474;52.236;5.114;2023-09-19T13:03:24;4.57;;;1.58;;
59169;SDS011;52474;52.236;5.114;2023-09-19T13:13:47;4.70;;;1.40;;
59169;SDS011;52474;52.236;5.114;2023-09-19T13:16:33;10.30;;;1.70;;
59169;SDS011;52474;52.236;5.114;2023-09-19T13:25:32;4.47;;;1.60;;
59169;SDS011;52474;52.236;5.114;2023-09-19T13:27:58;3.78;;;1.25;;
59169;SDS011;52474;52.236;5.114;2023-09-19T13:30:26;4.72;;;1.52;;
59169;SDS011;52474;52.236;5.114;2023-09-19T13:33:07;7.15;;;1.40;;
59169;SDS011;52474;52.236;5.114;2023-09-19T13:35:35;2.38;;;1.13;;
59169;SDS011;52474;52.236;5.114;2023-09-19T13:38:03;6.05;;;1.45;;
59169;SDS011;52474;52.236;5.114;2023-09-19T13:40:29;6.75;;;1.50;;
59169;SDS011;52474;52.236;5.114;2023-09-19T13:42:56;4.65;;;2.00;;
59169;SDS011;52474;52.236;5.114;2023-09-19T13:45:22;5.65;;;1.80;;
59169;SDS011;52474;52.236;5.114;2023-09-19T13:47:50;7.88;;;1.65;;
59169;SDS011;52474;52.236;5.114;2023-09-19T13:50:15;5.50;;;1.45;;
59169;SDS011;52474;52.236;5.114;2023-09-19T13:52:43;5.20;;;1.30;;
59169;SDS011;52474;52.236;5.114;2023-09-19T13:55:09;7.50;;;1.48;;
59169;SDS011;52474;52.236;5.114;2023-09-19T13:57:35;7.93;;;1.90;;
59169;SDS011;52474;52.236;5.114;2023-09-19T14:00:01;9.43;;;1.75;;
59169;SDS011;52474;52.236;5.114;2023-09-19T14:02:26;7.45;;;1.70;;
59169;SDS011;52474;52.236;5.114;2023-09-19T14:04:52;5.07;;;1.67;;
59169;SDS011;52474;52.236;5.114;2023-09-19T14:07:18;5.00;;;1.73;;
59169;SDS011;52474;52.236;5.114;2023-09-19T14:09:45;4.15;;;1.60;;
59169;SDS011;52474;52.236;5.114;2023-09-19T14:12:12;6.20;;;1.67;;
59169;SDS011;52474;52.236;5.114;2023-09-19T14:14:38;3.80;;;1.70;;
59169;SDS011;52474;52.236;5.114;2023-09-19T14:17:04;8.63;;;1.90;;
59169;SDS011;52474;52.236;5.114;2023-09-19T14:19:32;5.65;;;1.52;;
59169;SDS011;52474;52.236;5.114;2023-09-19T14:21:58;7.65;;;2.15;;
59169;SDS011;52474;52.236;5.114;2023-09-19T14:24:25;8.48;;;2.25;;
59169;SDS011;52474;52.236;5.114;2023-09-19T14:26:50;7.63;;;2.10;;
59169;SDS011;52474;52.236;5.114;2023-09-19T14:29:16;9.13;;;2.17;;
59169;SDS011;52474;52.236;5.114;2023-09-19T14:31:42;5.63;;;2.30;;
59169;SDS011;52474;52.236;5.114;2023-09-19T14:34:08;5.28;;;1.80;;
59169;SDS011;52474;52.236;5.114;2023-09-19T14:36:37;7.38;;;2.33;;
59169;SDS011;52474;52.236;5.114;2023-09-19T14:39:06;9.00;;;2.80;;
59169;SDS011;52474;52.236;5.114;2023-09-19T14:41:33;7.63;;;2.53;;
59169;SDS011;52474;52.236;5.114;2023-09-19T14:43:59;8.30;;;2.45;;
59169;SDS011;52474;52.236;5.114;2023-09-19T14:46:27;11.07;;;2.40;;
59169;SDS011;52474;52.236;5.114;2023-09-19T14:48:53;11.75;;;2.90;;
59169;SDS011;52474;52.236;5.114;2023-09-19T14:51:25;10.50;;;3.13;;
59169;SDS011;52474;52.236;5.114;2023-09-19T14:53:50;10.02;;;3.08;;
59169;SDS011;52474;52.236;5.114;2023-09-19T14:56:16;10.52;;;3.10;;
59169;SDS011;52474;52.236;5.114;2023-09-19T14:58:45;9.73;;;3.22;;
59169;SDS011;52474;52.236;5.114;2023-09-19T15:01:11;9.48;;;3.38;;
59169;SDS011;52474;52.236;5.114;2023-09-19T15:03:39;11.30;;;3.28;;
59169;SDS011;52474;52.236;5.114;2023-09-19T15:06:07;9.02;;;3.10;;
59169;SDS011;52474;52.236;5.114;2023-09-19T15:08:34;9.93;;;3.47;;
59169;SDS011;52474;52.236;5.114;2023-09-19T15:11:07;11.38;;;2.92;;
59169;SDS011;52474;52.236;5.114;2023-09-19T15:13:33;12.45;;;3.35;;
59169;SDS011;52474;52.236;5.114;2023-09-19T15:16:03;10.55;;;2.85;;
59169;SDS011;52474;52.236;5.114;2023-09-19T15:18:34;11.18;;;3.00;;
59169;SDS011;52474;52.236;5.114;2023-09-19T15:21:04;7.90;;;2.60;;
59169;SDS011;52474;52.236;5.114;2023-09-19T15:23:31;8.85;;;3.25;;
59169;SDS011;52474;52.236;5.114;2023-09-19T15:26:00;10.77;;;3.42;;
59169;SDS011;52474;52.236;5.114;2023-09-19T15:28:27;10.18;;;2.90;;
59169;SDS011;52474;52.236;5.114;2023-09-19T15:31:00;12.18;;;2.60;;
59169;SDS011;52474;52.236;5.114;2023-09-19T15:33:27;5.45;;;2.40;;
59169;SDS011;52474;52.236;5.114;2023-09-19T15:36:05;10.55;;;3.00;;
59169;SDS011;52474;52.236;5.114;2023-09-19T15:41:30;8.85;;;2.90;;
59169;SDS011;52474;52.236;5.114;2023-09-19T15:43:57;8.63;;;2.85;;
59169;SDS011;52474;52.236;5.114;2023-09-19T15:48:56;12.13;;;2.72;;
59169;SDS011;52474;52.236;5.114;2023-09-19T15:51:23;12.65;;;3.28;;
59169;SDS011;52474;52.236;5.114;2023-09-19T15:53:49;8.90;;;3.15;;
59169;SDS011;52474;52.236;5.114;2023-09-19T15:56:17;10.80;;;3.00;;
59169;SDS011;52474;52.236;5.114;2023-09-19T15:58:44;8.60;;;2.85;;
59169;SDS011;52474;52.236;5.114;2023-09-19T16:01:10;9.98;;;3.05;;
59169;SDS011;52474;52.236;5.114;2023-09-19T16:03:37;7.63;;;2.53;;
59169;SDS011;52474;52.236;5.114;2023-09-19T16:06:10;8.95;;;2.90;;
59169;SDS011;52474;52.236;5.114;2023-09-19T16:08:44;7.90;;;2.10;;
59169;SDS011;52474;52.236;5.114;2023-09-19T16:11:11;9.43;;;2.47;;
59169;SDS011;52474;52.236;5.114;2023-09-19T16:13:37;6.40;;;2.28;;
59169;SDS011;52474;52.236;5.114;2023-09-19T16:16:02;8.23;;;2.65;;
59169;SDS011;52474;52.236;5.114;2023-09-19T16:18:29;7.57;;;1.67;;
59169;SDS011;52474;52.236;5.114;2023-09-19T16:21:01;10.02;;;2.80;;
59169;SDS011;52474;52.236;5.114;2023-09-19T16:23:30;10.80;;;2.85;;
59169;SDS011;52474;52.236;5.114;2023-09-19T16:26:01;6.82;;;2.78;;
59169;SDS011;52474;52.236;5.114;2023-09-19T16:28:31;5.35;;;2.22;;
59169;SDS011;52474;52.236;5.114;2023-09-19T16:30:58;9.07;;;3.25;;
59169;SDS011;52474;52.236;5.114;2023-09-19T16:33:25;10.13;;;3.03;;
59169;SDS011;52474;52.236;5.114;2023-09-19T16:35:52;7.68;;;2.55;;
59169;SDS011;52474;52.236;5.114;2023-09-19T16:38:18;6.28;;;3.60;;
59169;SDS011;52474;52.236;5.114;2023-09-19T16:40:55;14.68;;;3.63;;
59169;SDS011;52474;52.236;5.114;2023-09-19T16:43:22;13.75;;;2.90;;
59169;SDS011;52474;52.236;5.114;2023-09-19T16:45:55;7.65;;;3.47;;
59169;SDS011;52474;52.236;5.114;2023-09-19T16:48:22;9.50;;;3.65;;
59169;SDS011;52474;52.236;5.114;2023-09-19T16:50:49;9.82;;;3.10;;
59169;SDS011;52474;52.236;5.114;2023-09-19T16:53:16;9.77;;;2.83;;
59169;SDS011;52474;52.236;5.114;2023-09-19T16:55:43;9.48;;;3.03;;
59169;SDS011;52474;52.236;5.114;2023-09-19T16:58:12;8.40;;;3.28;;